Time;durP1;ratioP1;P1;durP2;ratioP2;P2;SDS_P1;SDS_P2;PMS_P1;PMS_P2;Temp;Humidity;BMP_temperature;BMP_pressure;BME280_temperature;BME280_humidity;BME280_pressure;Samples;Min_cycle;Max_cycle;Signal;HPM_P1;HPM_P2
2022/02/06 00:00:34;;;;;;;45.65;8.55;;;;;;;7.55;100.00;100994.25;10426564;28;20029;-72
2022/02/06 00:05:35;;;;;;;30.05;8.25;;;;;;;7.60;100.00;101018.00;10441179;28;20033;-73
2022/02/06 00:10:35;;;;;;;20.55;6.65;;;;;;;7.61;100.00;100998.94;10425928;28;20044;-73
2022/02/06 00:15:37;;;;;;;43.58;8.77;;;;;;;7.62;100.00;101005.16;10425941;28;20028;-73
2022/02/06 00:20:52;;;;;;;34.25;8.57;;;;;;;7.63;100.00;100999.63;10459024;28;20032;-73
2022/02/06 00:26:04;;;;;;;41.25;10.73;;;;;;;7.62;100.00;100980.91;10457692;28;20037;-72
2022/02/06 00:41:32;;;;;;;34.75;8.07;;;;;;;7.61;100.00;100945.03;10458198;28;20037;-73
2022/02/06 00:46:35;;;;;;;23.90;8.68;;;;;;;7.66;100.00;100926.50;10440571;28;20040;-73
2022/02/06 00:51:44;;;;;;;39.83;10.50;;;;;;;7.69;100.00;100919.91;10457023;28;20033;-73
2022/02/06 00:56:44;;;;;;;39.15;10.27;;;;;;;7.67;100.00;100919.25;10415635;28;20057;-74
2022/02/06 01:01:45;;;;;;;40.75;11.77;;;;;;;7.66;100.00;100915.72;10400481;28;20037;-74
2022/02/06 01:06:46;;;;;;;44.67;8.63;;;;;;;7.68;100.00;100907.44;10416738;28;20041;-74
2022/02/06 01:11:49;;;;;;;53.28;10.45;;;;;;;7.71;100.00;100880.13;10398279;28;20064;-73
2022/02/06 01:17:12;;;;;;;28.30;10.50;;;;;;;7.67;100.00;100916.53;10415923;28;20041;-73
2022/02/06 01:22:18;;;;;;;47.47;11.18;;;;;;;7.71;100.00;100879.28;10415708;28;20056;-73
2022/02/06 01:27:23;;;;;;;55.23;15.10;;;;;;;7.66;100.00;100887.94;10399834;28;20041;-74
2022/02/06 01:32:31;;;;;;;44.58;11.90;;;;;;;7.71;100.00;100893.59;10416487;28;20377;-73
2022/02/06 01:37:39;;;;;;;52.05;12.15;;;;;;;7.71;100.00;100890.06;10416860;28;20111;-74
2022/02/06 01:42:46;;;;;;;62.70;13.85;;;;;;;7.74;100.00;100876.22;10416040;28;20076;-74
2022/02/06 02:03:56;;;;;;;50.03;14.13;;;;;;;7.79;100.00;100845.03;10458246;28;20033;-74
2022/02/06 02:50:17;;;;;;;;;;;;;;;7.69;100.00;100795.94;10464278;28;20452;-74
2022/02/06 03:00:46;;;;;;;53.65;10.57;;;;;;;7.68;100.00;100754.63;10463424;28;20049;-73
2022/02/06 03:05:49;;;;;;;57.38;12.50;;;;;;;7.70;100.00;100746.38;10432604;28;20029;-74
2022/02/06 03:10:56;;;;;;;47.85;10.23;;;;;;;7.67;100.00;100760.22;10465408;28;20035;-73
2022/02/06 03:21:01;;;;;;;55.17;12.55;;;;;;;7.71;100.00;100741.81;10463168;28;20061;-74
2022/02/06 03:26:03;;;;;;;38.45;12.02;;;;;;;7.69;100.00;100731.25;10429183;28;20052;-74
2022/02/06 03:31:05;;;;;;;45.70;12.23;;;;;;;7.71;100.00;100725.66;10443618;28;20040;-74
2022/02/06 03:36:06;;;;;;;42.45;10.65;;;;;;;7.72;100.00;100713.84;10462267;28;20052;-74
2022/02/06 03:41:10;;;;;;;27.23;10.75;;;;;;;7.74;100.00;100723.44;10442555;28;20064;-74
2022/02/06 03:46:15;;;;;;;30.23;7.78;;;;;;;7.69;100.00;100705.13;10460306;28;20449;-74
2022/02/06 03:51:31;;;;;;;56.83;11.38;;;;;;;7.69;100.00;100710.50;10426852;28;20114;-74
2022/02/06 03:56:33;;;;;;;45.97;11.52;;;;;;;7.74;100.00;100714.50;10417605;28;20053;-75
2022/02/06 04:01:33;;;;;;;46.05;13.93;;;;;;;7.76;100.00;100683.66;10417937;28;20068;-75
2022/02/06 04:06:33;;;;;;;39.95;10.18;;;;;;;7.80;100.00;100684.13;10419478;28;20037;-75
2022/02/06 04:11:46;;;;;;;50.25;11.90;;;;;;;7.80;100.00;100674.19;10417922;28;20032;-75
2022/02/06 04:16:52;;;;;;;27.13;10.75;;;;;;;7.78;100.00;100589.94;10418733;28;20125;-75
2022/02/06 04:21:56;;;;;;;37.25;11.85;;;;;;;7.78;100.00;100657.34;10418176;28;20068;-76
2022/02/06 04:26:57;;;;;;;51.97;11.90;;;;;;;7.76;100.00;100634.31;10417615;28;20118;-75
2022/02/06 04:31:59;;;;;;;35.67;10.07;;;;;;;7.77;100.00;100639.50;10416064;28;20550;-75
2022/02/06 05:29:59;;;;;;;36.60;10.15;;;;;;;8.12;100.00;100537.28;10442237;28;20502;-74
2022/02/06 05:34:27;;;;;;;36.65;7.63;;;;;;;8.11;100.00;100524.84;10450699;28;20187;-74
2022/02/06 05:39:27;;;;;;;22.13;8.27;;;;;;;8.13;100.00;100499.31;10461187;28;20033;-74
2022/02/06 05:44:28;;;;;;;39.47;11.80;;;;;;;8.09;100.00;100503.44;10465371;28;20384;-74
2022/02/06 05:49:28;;;;;;;37.83;9.05;;;;;;;8.12;100.00;100503.06;10464537;28;20115;-74
2022/02/06 05:54:28;;;;;;;37.30;10.23;;;;;;;8.12;100.00;100513.00;10446848;28;20461;-74
2022/02/06 05:59:29;;;;;;;38.03;11.85;;;;;;;8.12;100.00;100489.56;10431001;28;20025;-74
2022/02/06 06:04:29;;;;;;;46.55;10.38;;;;;;;8.16;100.00;100492.72;10462899;28;20159;-74
2022/02/06 06:09:29;;;;;;;33.22;11.48;;;;;;;8.14;100.00;100460.56;10464449;28;20419;-74
2022/02/06 06:14:31;;;;;;;48.80;11.57;;;;;;;8.15;100.00;100473.00;10445748;28;20032;-74
2022/02/06 06:19:33;;;;;;;40.75;11.15;;;;;;;8.20;100.00;100463.50;10463572;28;20090;-74
2022/02/06 06:24:43;;;;;;;63.47;11.60;;;;;;;8.17;100.00;100451.25;10463237;28;20037;-74
2022/02/06 06:29:44;;;;;;;28.00;7.60;;;;;;;8.19;100.00;100429.47;10463145;28;20036;-74
2022/02/06 06:34:45;;;;;;;31.58;8.57;;;;;;;8.23;100.00;100430.75;10445813;28;20025;-74
2022/02/06 06:39:48;;;;;;;40.38;10.27;;;;;;;8.25;100.00;100423.28;10463248;28;20029;-74
2022/02/06 06:44:48;;;;;;;41.35;10.30;;;;;;;8.30;100.00;100424.38;10463542;28;20043;-74
2022/02/06 06:49:48;;;;;;;51.50;10.80;;;;;;;8.33;100.00;100398.91;10462853;28;20025;-74
2022/02/06 06:54:58;;;;;;;45.92;13.38;;;;;;;8.37;100.00;100378.59;10461792;28;20473;-74
2022/02/06 07:05:18;;;;;;;48.75;11.20;;;;;;;8.30;100.00;100372.31;10460174;28;20049;-74
2022/02/06 07:10:18;;;;;;;24.88;9.43;;;;;;;8.25;100.00;100369.34;10444604;28;20073;-74
2022/02/06 07:15:19;;;;;;;38.90;10.02;;;;;;;8.18;100.00;100345.03;10461890;28;20040;-74
2022/02/06 07:20:19;;;;;;;27.35;9.90;;;;;;;8.14;100.00;100349.16;10444902;28;20048;-75
2022/02/06 07:25:19;;;;;;;58.65;10.93;;;;;;;8.12;100.00;100346.63;10461325;28;20037;-75
2022/02/06 07:30:20;;;;;;;31.65;10.77;;;;;;;8.08;100.00;100337.28;10460589;28;20090;-75
2022/02/06 07:35:21;;;;;;;42.38;10.43;;;;;;;8.05;100.00;100299.91;10443835;28;20033;-75
2022/02/06 07:40:22;;;;;;;54.28;11.05;;;;;;;8.06;100.00;100306.97;10459619;28;20401;-75
2022/02/06 07:45:22;;;;;;;41.80;9.68;;;;;;;8.05;100.00;100285.59;10460011;28;20040;-73
2022/02/06 07:50:23;;;;;;;45.60;10.38;;;;;;;8.02;100.00;100243.69;10441734;28;20401;-73
2022/02/06 07:55:23;;;;;;;36.03;12.10;;;;;;;8.06;100.00;100223.38;10459459;28;20053;-73
2022/02/06 08:00:24;;;;;;;34.92;9.60;;;;;;;8.05;100.00;100219.00;10424037;28;20114;-72
2022/02/06 08:05:25;;;;;;;54.83;9.15;;;;;;;8.04;100.00;100193.09;10458859;28;20067;-72
2022/02/06 08:10:27;;;;;;;19.15;6.90;;;;;;;8.03;100.00;100152.81;10458717;28;20503;-72
2022/02/06 08:15:27;;;;;;;36.63;10.13;;;;;;;8.02;100.00;100186.22;10458673;28;20045;-72
2022/02/06 08:20:28;;;;;;;38.47;10.18;;;;;;;8.02;100.00;100175.44;10440081;28;20396;-73
2022/02/06 08:25:28;;;;;;;52.60;10.57;;;;;;;8.00;100.00;100169.41;10440387;28;20040;-73
2022/02/06 08:30:31;;;;;;;22.73;6.78;;;;;;;8.00;100.00;100139.75;10442860;28;20083;-72
2022/02/06 08:35:32;;;;;;;39.90;8.75;;;;;;;8.01;100.00;100112.59;10440264;28;20045;-74
2022/02/06 08:40:33;;;;;;;22.75;6.65;;;;;;;8.01;100.00;100111.75;10457355;28;20129;-75
2022/02/06 08:45:33;;;;;;;14.63;6.97;;;;;;;8.01;100.00;100107.22;10458386;28;20037;-73
2022/02/06 08:50:33;;;;;;;17.13;6.93;;;;;;;8.05;100.00;100072.59;10457647;28;20040;-73
2022/02/06 08:55:34;;;;;;;30.92;7.70;;;;;;;8.05;100.00;100068.00;10457989;28;20517;-74
2022/02/06 09:00:34;;;;;;;29.80;10.27;;;;;;;8.05;100.00;100032.97;10456758;28;20040;-73
2022/02/06 09:05:35;;;;;;;32.75;7.57;;;;;;;8.06;100.00;100021.13;10428145;28;20120;-72
2022/02/06 09:10:35;;;;;;;30.58;7.90;;;;;;;8.07;100.00;100017.44;10423200;28;20052;-74
2022/02/06 09:15:36;;;;;;;27.25;7.35;;;;;;;8.07;100.00;99995.84;10456853;28;20036;-73
2022/02/06 09:20:36;;;;;;;20.73;6.45;;;;;;;8.10;100.00;99994.59;10457770;28;20041;-74
2022/02/06 09:25:37;;;;;;;23.27;5.95;;;;;;;8.08;100.00;99988.59;10457283;28;20460;-73
2022/02/06 09:30:37;;;;;;;21.60;6.85;;;;;;;8.06;100.00;99991.47;10457325;28;20037;-73
2022/02/06 09:35:38;;;;;;;22.08;6.53;;;;;;;8.01;100.00;99974.25;10456487;28;20044;-72
2022/02/06 09:40:39;;;;;;;43.00;8.48;;;;;;;8.02;100.00;99965.13;10457239;28;20033;-73
2022/02/06 09:45:44;;;;;;;32.35;8.35;;;;;;;8.01;100.00;99931.97;10438670;28;20055;-74
2022/02/06 09:50:45;;;;;;;21.42;9.10;;;;;;;8.05;100.00;99930.50;10438974;28;20476;-74
2022/02/06 09:55:46;;;;;;;44.00;10.90;;;;;;;8.08;100.00;99900.44;10455508;28;20052;-75
2022/02/06 10:00:47;;;;;;;17.00;6.90;;;;;;;8.10;100.00;99906.47;10438148;28;20039;-75
2022/02/06 10:05:49;;;;;;;39.13;11.77;;;;;;;8.16;100.00;99902.09;10455921;28;20037;-75
2022/02/06 10:10:55;;;;;;;23.48;9.02;;;;;;;8.13;100.00;99873.66;10437895;28;20029;-75
2022/02/06 10:15:56;;;;;;;43.83;10.10;;;;;;;8.15;100.00;99871.59;10439172;28;20064;-74
2022/02/06 10:20:57;;;;;;;39.30;8.98;;;;;;;8.13;100.00;99818.91;10455481;28;20068;-74
2022/02/06 10:26:09;;;;;;;34.05;9.07;;;;;;;8.15;100.00;99846.50;10460619;28;20079;-74
2022/02/06 10:31:09;;;;;;;44.50;12.20;;;;;;;8.19;100.00;99849.63;10431422;28;20175;-75
2022/02/06 10:36:09;;;;;;;37.17;9.68;;;;;;;8.23;100.00;99856.25;10461630;28;20041;-75
2022/02/06 10:41:18;;;;;;;30.92;12.05;;;;;;;8.20;100.00;99824.28;10462723;28;20033;-75
2022/02/06 10:46:18;;;;;;;49.20;10.85;;;;;;;8.15;100.00;99871.59;10445789;28;20029;-75
2022/02/06 10:51:51;;;;;;;13.90;5.55;;;;;;;7.98;100.00;99971.97;10462306;28;20477;-76
2022/02/06 10:57:18;;;;;;;9.70;4.63;;;;;;;7.02;100.00;99974.63;10462015;28;20551;-75
2022/02/06 11:02:27;;;;;;;12.30;3.63;;;;;;;6.81;100.00;99981.72;10460047;28;20396;-75
2022/02/06 11:07:28;;;;;;;16.67;3.70;;;;;;;6.64;100.00;100013.47;10462152;28;20094;-75
2022/02/06 11:12:28;;;;;;;20.67;3.28;;;;;;;6.53;100.00;100017.50;10427606;28;20029;-75
2022/02/06 11:17:32;;;;;;;8.60;3.45;;;;;;;6.53;100.00;100022.03;10461197;28;20041;-75
2022/02/06 11:22:34;;;;;;;11.93;2.55;;;;;;;6.45;100.00;100041.03;10460100;28;20112;-74
2022/02/06 11:27:34;;;;;;;4.90;2.85;;;;;;;6.41;100.00;100035.16;10461954;28;20029;-75
2022/02/06 11:32:36;;;;;;;14.90;4.43;;;;;;;6.52;100.00;100052.66;10459473;28;20471;-75
2022/02/06 11:48:26;;;;;;;20.10;3.05;;;;;;;6.92;100.00;99997.34;10459575;28;20108;-76
2022/02/06 11:53:38;;;;;;;4.47;1.35;;;;;;;6.99;100.00;100018.94;10425450;28;20052;-76
2022/02/06 11:58:40;;;;;;;19.83;2.47;;;;;;;6.97;100.00;100013.72;10443652;28;20408;-76
2022/02/06 12:03:59;;;;;;;8.65;2.28;;;;;;;6.97;100.00;100039.81;10457782;28;20037;-76
2022/02/06 12:09:00;;;;;;;7.03;3.22;;;;;;;6.96;100.00;100019.31;10459824;28;20106;-76
2022/02/06 12:14:06;;;;;;;22.33;5.55;;;;;;;7.04;100.00;100043.38;10458578;28;20056;-75
2022/02/06 12:19:39;;;;;;;32.25;5.10;;;;;;;7.19;100.00;100038.75;10459002;28;20068;-76
2022/02/06 12:24:41;;;;;;;31.35;4.55;;;;;;;7.38;100.00;100041.75;10418442;28;20069;-76
2022/02/06 12:29:44;;;;;;;4.88;2.90;;;;;;;7.56;100.00;100042.09;10425552;28;20036;-75
2022/02/06 12:40:12;;;;;;;7.75;2.47;;;;;;;7.63;100.00;100013.31;10443784;28;20033;-76
2022/02/06 12:45:18;;;;;;;14.15;3.28;;;;;;;7.69;100.00;100030.53;10440124;28;20025;-76
2022/02/06 12:50:26;;;;;;;13.73;3.13;;;;;;;7.79;100.00;100036.38;10439520;28;20090;-76
2022/02/06 12:55:34;;;;;;;7.25;3.10;;;;;;;7.64;100.00;100047.28;10425870;28;20571;-76
2022/02/06 13:00:44;;;;;;;20.60;3.45;;;;;;;7.71;100.00;100027.63;10439368;28;20029;-76
2022/02/06 13:05:54;;;;;;;5.38;2.35;;;;;;;7.93;100.00;100037.28;10439346;28;20368;-76
2022/02/06 13:10:57;;;;;;;4.25;2.38;;;;;;;7.98;100.00;100045.59;10456764;28;20021;-76
2022/02/06 13:21:23;;;;;;;10.57;2.67;;;;;;;8.11;100.00;100050.22;10440739;28;20036;-75
2022/02/06 13:26:34;;;;;;;5.28;3.08;;;;;;;8.19;100.00;100051.88;10440685;28;20082;-75
2022/02/06 13:31:49;;;;;;;11.63;3.03;;;;;;;8.37;100.00;100052.97;10456604;28;20033;-76
2022/02/06 13:37:43;;;;;;;13.60;3.03;;;;;;;8.46;100.00;100052.81;10440341;28;20025;-76
2022/02/06 13:42:18;;;;;;;11.60;3.67;;;;;;;8.51;100.00;100077.31;10428039;28;20083;-77
2022/02/06 13:47:21;;;;;;;2.05;1.60;;;;;;;8.38;100.00;100078.94;10438197;28;20404;-76
2022/02/06 13:52:21;;;;;;;12.00;3.53;;;;;;;8.25;100.00;100080.75;10454366;28;20044;-76
2022/02/06 13:57:23;;;;;;;12.85;3.50;;;;;;;8.13;100.00;100075.09;10438669;28;20103;-77
2022/02/06 14:02:24;;;;;;;4.40;2.00;;;;;;;8.04;100.00;100074.44;10462958;28;20430;-78
2022/02/06 14:07:26;;;;;;;7.00;2.47;;;;;;;7.96;99.52;100080.00;10446191;28;20033;-78
2022/02/06 14:12:26;;;;;;;5.28;2.03;;;;;;;7.84;100.00;100100.47;10462573;28;20439;-78
2022/02/06 14:17:35;;;;;;;5.10;2.97;;;;;;;8.08;99.77;100088.34;10464568;28;20048;-78
2022/02/06 14:22:37;;;;;;;4.25;2.10;;;;;;;8.25;100.00;100091.53;10464210;28;20040;-77
2022/02/06 14:27:38;;;;;;;7.82;2.60;;;;;;;7.88;100.00;100091.81;10446213;28;20135;-77
2022/02/06 14:33:07;;;;;;;10.15;2.38;;;;;;;8.00;100.00;100097.44;10462691;28;20060;-77
2022/02/06 14:38:10;;;;;;;28.13;3.85;;;;;;;8.12;100.00;100070.75;10445949;28;20033;-76
2022/02/06 14:43:11;;;;;;;10.25;3.88;;;;;;;8.19;99.42;100092.34;10461235;28;20083;-76
2022/02/06 14:48:12;;;;;;;11.88;2.88;;;;;;;8.28;99.69;100093.81;10462970;28;20033;-76
2022/02/06 14:53:13;;;;;;;9.25;2.30;;;;;;;8.49;97.97;100072.13;10445227;28;20132;-75
2022/02/06 14:58:13;;;;;;;2.70;2.50;;;;;;;8.52;96.38;100073.56;10428323;28;20136;-75
2022/02/06 15:03:14;;;;;;;9.30;2.95;;;;;;;8.41;96.20;100072.31;10444154;28;20119;-75
2022/02/06 15:08:14;;;;;;;13.55;3.53;;;;;;;8.28;96.10;100069.53;10443571;28;20041;-75
2022/02/06 15:13:15;;;;;;;14.80;2.65;;;;;;;8.11;95.43;100082.56;10460853;28;20037;-74
2022/02/06 15:18:24;;;;;;;6.30;2.58;;;;;;;8.07;96.73;100078.59;10442640;28;20503;-75
2022/02/06 15:23:24;;;;;;;10.70;2.92;;;;;;;7.97;95.76;100070.88;10460492;28;20037;-75
2022/02/06 15:28:25;;;;;;;6.03;3.35;;;;;;;7.94;97.98;100082.06;10462542;28;20032;-77
2022/02/06 15:33:25;;;;;;;6.15;4.05;;;;;;;7.61;98.63;100073.81;10459877;28;20087;-78
2022/02/06 15:38:29;;;;;;;10.35;4.05;;;;;;;7.42;100.00;100103.13;10426580;28;20495;-77
2022/02/06 15:43:29;;;;;;;26.15;3.97;;;;;;;7.18;100.00;100112.47;10462684;28;20091;-78
2022/02/06 15:48:30;;;;;;;5.97;1.83;;;;;;;6.82;100.00;100142.16;10442016;28;20029;-78
2022/02/06 15:53:30;;;;;;;2.75;1.23;;;;;;;6.31;100.00;100138.69;10443203;28;20063;-78
2022/02/06 15:58:31;;;;;;;7.97;2.67;;;;;;;5.63;100.00;100148.72;10461256;28;20404;-78
2022/02/06 16:03:31;;;;;;;4.20;2.38;;;;;;;5.23;100.00;100140.00;10443056;28;20122;-77
2022/02/06 16:08:31;;;;;;;12.52;2.92;;;;;;;5.20;100.00;100135.88;10460407;28;20040;-77
2022/02/06 16:13:32;;;;;;;3.88;3.10;;;;;;;5.34;100.00;100126.16;10461466;28;20548;-77
2022/02/06 16:18:32;;;;;;;6.32;2.70;;;;;;;5.39;100.00;100118.38;10459515;28;20109;-77
2022/02/06 16:23:33;;;;;;;9.32;4.97;;;;;;;5.24;100.00;100104.13;10457689;28;20055;-78
2022/02/06 16:28:33;;;;;;;12.80;4.82;;;;;;;5.40;100.00;100105.81;10457980;28;20425;-77
2022/02/06 16:33:34;;;;;;;7.40;3.72;;;;;;;5.60;100.00;100169.53;10456412;28;20405;-78
2022/02/06 16:38:34;;;;;;;11.23;3.47;;;;;;;5.02;100.00;100223.88;10459435;28;20037;-77
2022/02/06 16:43:34;;;;;;;7.75;2.45;;;;;;;4.38;100.00;100181.19;10458710;28;20468;-76
2022/02/06 16:48:35;;;;;;;10.23;3.28;;;;;;;4.26;100.00;100175.34;10425164;28;20401;-76
2022/02/06 16:53:35;;;;;;;13.77;4.03;;;;;;;4.32;100.00;100139.81;10457678;28;20143;-75
2022/02/06 16:58:36;;;;;;;11.55;3.38;;;;;;;4.34;100.00;100121.72;10439767;28;20468;-75
2022/02/06 17:03:36;;;;;;;4.13;2.05;;;;;;;4.39;100.00;100122.00;10457149;28;20040;-76
2022/02/06 17:08:40;;;;;;;6.45;2.60;;;;;;;4.48;100.00;100124.66;10455691;28;20044;-76
2022/02/06 17:13:40;;;;;;;11.98;2.78;;;;;;;4.55;100.00;100110.34;10439983;28;20040;-76
2022/02/06 17:18:41;;;;;;;19.50;3.95;;;;;;;4.70;100.00;100129.22;10457421;28;20041;-77
2022/02/06 17:23:41;;;;;;;24.70;4.95;;;;;;;4.93;100.00;100129.19;10457351;28;20123;-77
2022/02/06 17:28:42;;;;;;;17.83;4.45;;;;;;;5.08;100.00;100115.84;10457302;28;20373;-77
2022/02/06 17:33:42;;;;;;;10.48;5.03;;;;;;;5.20;100.00;100141.22;10459936;28;20029;-77
2022/02/06 17:38:42;;;;;;;11.73;4.18;;;;;;;5.20;100.00;100129.63;10466933;28;20041;-76
2022/02/06 17:43:43;;;;;;;18.23;5.40;;;;;;;5.23;100.00;100137.31;10465219;28;20045;-77
2022/02/06 17:48:45;;;;;;;16.92;5.22;;;;;;;5.22;100.00;100147.22;10463097;28;20037;-76
2022/02/06 17:53:45;;;;;;;17.92;3.85;;;;;;;5.49;100.00;100179.91;10464648;28;20061;-77
2022/02/06 17:58:45;;;;;;;13.43;4.18;;;;;;;5.45;100.00;100179.41;10465682;28;20044;-76
2022/02/06 18:03:46;;;;;;;6.20;3.17;;;;;;;5.35;100.00;100197.63;10462397;28;20075;-76
2022/02/06 18:08:46;;;;;;;22.95;4.07;;;;;;;5.31;100.00;100207.06;10430029;28;20041;-76
2022/02/06 18:13:47;;;;;;;11.10;5.40;;;;;;;5.31;100.00;100196.31;10464365;28;20120;-77
2022/02/06 18:18:47;;;;;;;15.73;3.95;;;;;;;5.21;100.00;100201.13;10446668;28;20059;-77
2022/02/06 18:23:48;;;;;;;28.38;5.20;;;;;;;5.30;100.00;100198.19;10463374;28;20037;-77
2022/02/06 18:28:48;;;;;;;19.27;4.68;;;;;;;5.49;100.00;100210.28;10463079;28;20064;-77
2022/02/06 18:33:48;;;;;;;12.82;4.43;;;;;;;5.68;100.00;100245.66;10464179;28;20036;-77
2022/02/06 18:38:49;;;;;;;20.13;4.63;;;;;;;5.53;100.00;100233.06;10462836;28;20033;-77
2022/02/06 18:43:52;;;;;;;13.98;4.70;;;;;;;5.24;100.00;100241.84;10461869;28;20476;-77
2022/02/06 18:48:52;;;;;;;12.20;3.08;;;;;;;5.04;100.00;100235.25;10463460;28;20032;-77
2022/02/06 18:53:52;;;;;;;14.80;3.28;;;;;;;4.95;100.00;100228.31;10462189;28;20465;-76
2022/02/06 18:58:53;;;;;;;21.15;3.90;;;;;;;4.84;100.00;100241.09;10463225;28;20087;-77
2022/02/06 19:03:53;;;;;;;20.98;3.70;;;;;;;4.76;100.00;100256.41;10443918;28;20563;-77
2022/02/06 19:08:54;;;;;;;10.38;2.92;;;;;;;4.70;100.00;100267.84;10467349;28;20036;-77
2022/02/06 19:13:54;;;;;;;9.05;3.35;;;;;;;4.63;100.00;100286.47;10461681;28;20036;-77
2022/02/06 19:18:54;;;;;;;22.00;5.10;;;;;;;4.62;100.00;100288.28;10461507;28;20086;-77
2022/02/06 19:23:55;;;;;;;29.65;4.95;;;;;;;4.70;100.00;100284.75;10460626;28;20041;-77
2022/02/06 19:28:56;;;;;;;14.90;5.40;;;;;;;4.70;100.00;100278.56;10461144;28;20123;-77
2022/02/06 19:33:57;;;;;;;7.20;3.17;;;;;;;4.80;100.00;100295.28;10443088;28;20056;-77
2022/02/06 19:38:57;;;;;;;18.48;5.70;;;;;;;4.85;100.00;100272.28;10442665;28;20043;-77
2022/02/06 19:43:57;;;;;;;12.10;4.15;;;;;;;4.81;100.00;100256.69;10460383;28;20512;-77
2022/02/06 19:49:04;;;;;;;16.58;4.18;;;;;;;4.74;100.00;100286.06;10460823;28;20036;-77
2022/02/06 19:54:04;;;;;;;16.98;3.33;;;;;;;4.71;97.43;100274.88;10460787;28;20098;-77
2022/02/06 19:59:05;;;;;;;9.13;2.97;;;;;;;4.69;96.63;100306.38;10458660;28;20373;-77
2022/02/06 20:04:05;;;;;;;9.85;3.17;;;;;;;4.54;94.33;100312.47;10459575;28;20123;-77
2022/02/06 20:09:07;;;;;;;8.50;2.42;;;;;;;4.40;94.94;100305.13;10441394;28;20124;-76
2022/02/06 20:14:08;;;;;;;14.15;3.67;;;;;;;4.30;96.42;100358.09;10458741;28;20460;-76
2022/02/06 20:19:08;;;;;;;17.98;4.47;;;;;;;4.10;96.85;100352.28;10424806;28;20083;-77
2022/02/06 20:24:10;;;;;;;27.25;4.03;;;;;;;4.15;98.03;100357.97;10440948;28;20029;-76
2022/02/06 20:29:11;;;;;;;9.00;4.13;;;;;;;4.12;98.57;100361.81;10458056;28;20037;-77
2022/02/06 20:34:13;;;;;;;18.50;5.88;;;;;;;4.27;98.42;100374.53;10441246;28;20029;-76
2022/02/06 20:39:14;;;;;;;11.23;4.53;;;;;;;4.41;99.02;100396.13;10457462;28;20025;-77
2022/02/06 20:44:14;;;;;;;9.70;4.78;;;;;;;4.55;97.40;100421.41;10458060;28;20028;-77
2022/02/06 20:49:15;;;;;;;11.45;3.85;;;;;;;4.76;96.40;100418.19;10441270;28;20060;-76
2022/02/06 20:54:15;;;;;;;4.78;2.33;;;;;;;4.83;94.36;100437.09;10457651;28;20063;-77
2022/02/06 20:59:16;;;;;;;28.35;5.63;;;;;;;5.03;97.07;100453.66;10458053;28;20388;-78
2022/02/06 21:04:17;;;;;;;17.33;4.38;;;;;;;5.00;95.33;100476.28;10439895;28;20060;-77
2022/02/06 21:09:18;;;;;;;13.07;4.47;;;;;;;5.08;95.05;100472.75;10457408;28;20037;-77
2022/02/06 21:14:18;;;;;;;13.95;4.15;;;;;;;5.08;94.41;100483.50;10457227;28;20036;-77
2022/02/06 21:19:19;;;;;;;25.10;5.40;;;;;;;5.03;94.72;100485.84;10457006;28;20044;-76
2022/02/06 21:24:19;;;;;;;18.25;4.28;;;;;;;4.98;93.22;100483.69;10459039;28;20037;-76
2022/02/06 21:29:21;;;;;;;14.88;4.47;;;;;;;4.83;94.11;100493.44;10438815;28;20099;-75
2022/02/06 21:34:25;;;;;;;13.90;3.83;;;;;;;4.76;95.48;100500.50;10456735;28;20484;-76
2022/02/06 21:39:27;;;;;;;17.00;3.35;;;;;;;4.92;95.48;100513.06;10457212;28;20033;-76
2022/02/06 21:44:27;;;;;;;11.52;3.63;;;;;;;5.06;96.22;100533.81;10457630;28;20041;-76
2022/02/06 21:49:28;;;;;;;20.83;5.65;;;;;;;5.13;96.81;100550.91;10438738;28;20033;-76
2022/02/06 21:54:28;;;;;;;16.63;5.93;;;;;;;5.22;97.24;100557.09;10456852;28;20091;-76
2022/02/06 21:59:30;;;;;;;15.65;6.70;;;;;;;5.25;96.47;100597.03;10457952;28;20049;-76
2022/02/06 22:04:30;;;;;;;12.20;3.53;;;;;;;5.05;94.91;100599.22;10457654;28;20481;-75
2022/02/06 22:25:34;;;;;;;19.45;5.07;;;;;;;4.26;99.79;100636.34;10448442;28;20037;-76
2022/02/06 22:30:32;;;;;;;34.90;6.10;;;;;;;4.24;99.11;100650.91;10463125;28;20366;-76
2022/02/06 22:35:33;;;;;;;23.77;7.97;;;;;;;4.18;100.00;100680.06;10463278;28;20033;-76
2022/02/06 22:40:35;;;;;;;24.17;5.60;;;;;;;4.37;100.00;100684.31;10463697;28;20068;-76
2022/02/06 22:45:35;;;;;;;20.02;5.35;;;;;;;4.39;97.48;100694.88;10462755;28;20069;-76
2022/02/06 22:50:36;;;;;;;14.05;3.42;;;;;;;4.54;96.08;100711.19;10444763;28;20064;-76
2022/02/06 22:55:38;;;;;;;19.73;4.50;;;;;;;4.58;95.71;100745.53;10445152;28;20063;-76
2022/02/06 23:00:46;;;;;;;13.80;4.18;;;;;;;4.71;95.90;100773.75;10462207;28;20491;-76
2022/02/06 23:05:47;;;;;;;25.17;4.15;;;;;;;4.60;95.29;100788.31;10444862;28;20033;-76
2022/02/06 23:10:47;;;;;;;18.75;4.25;;;;;;;4.53;94.73;100785.44;10461902;28;20065;-77
2022/02/06 23:15:49;;;;;;;21.90;7.13;;;;;;;4.50;95.60;100803.66;10462193;28;20036;-77
2022/02/06 23:20:50;;;;;;;16.70;5.55;;;;;;;4.62;96.53;100823.81;10427435;28;20036;-77
2022/02/06 23:25:50;;;;;;;16.02;4.22;;;;;;;4.80;94.76;100823.75;10443610;28;20454;-77
2022/02/06 23:30:51;;;;;;;12.85;4.43;;;;;;;4.95;94.50;100846.28;10442469;28;20029;-77
2022/02/06 23:35:51;;;;;;;12.80;4.50;;;;;;;5.01;94.02;100872.47;10461600;28;20060;-78
2022/02/06 23:40:52;;;;;;;9.80;3.70;;;;;;;4.96;94.03;100888.19;10464195;28;20071;-77
2022/02/06 23:45:54;;;;;;;14.88;4.22;;;;;;;4.81;95.33;100916.63;10460585;28;20075;-77
2022/02/06 23:51:05;;;;;;;12.00;5.32;;;;;;;4.75;95.71;100928.84;10442896;28;20519;-78
2022/02/06 23:56:12;;;;;;;10.20;4.43;;;;;;;4.50;96.39;100948.44;10461870;28;20049;-75
